地図

経路データ

SID SEASON NUMBER BASIN SUBBASIN NAME ISO_TIME NATURE LAT LON WMO_WIND WMO_PRES WMO_AGENCY TRACK_TYPE DIST2LAND LANDFALL IFLAG USA_AGENCY USA_ATCF_ID USA_LAT USA_LON USA_RECORD USA_STATUS USA_WIND USA_PRES USA_SSHS USA_R34_NE USA_R34_SE USA_R34_SW USA_R34_NW USA_R50_NE USA_R50_SE USA_R50_SW USA_R50_NW USA_R64_NE USA_R64_SE USA_R64_SW USA_R64_NW USA_POCI USA_ROCI USA_RMW USA_EYE TOKYO_LAT TOKYO_LON TOKYO_GRADE TOKYO_WIND TOKYO_PRES TOKYO_R50_DIR TOKYO_R50_LONG TOKYO_R50_SHORT TOKYO_R30_DIR TOKYO_R30_LONG TOKYO_R30_SHORT TOKYO_LAND CMA_LAT CMA_LON CMA_CAT CMA_WIND CMA_PRES HKO_LAT HKO_LON HKO_CAT HKO_WIND HKO_PRES NEWDELHI_LAT NEWDELHI_LON NEWDELHI_GRADE NEWDELHI_WIND NEWDELHI_PRES NEWDELHI_CI NEWDELHI_DP NEWDELHI_POCI REUNION_LAT REUNION_LON REUNION_TYPE REUNION_WIND REUNION_PRES REUNION_TNUM REUNION_CI REUNION_RMW REUNION_R34_NE REUNION_R34_SE REUNION_R34_SW REUNION_R34_NW REUNION_R50_NE REUNION_R50_SE REUNION_R50_SW REUNION_R50_NW REUNION_R64_NE REUNION_R64_SE REUNION_R64_SW REUNION_R64_NW BOM_LAT BOM_LON BOM_TYPE BOM_WIND BOM_PRES BOM_TNUM BOM_CI BOM_RMW BOM_R34_NE BOM_R34_SE BOM_R34_SW BOM_R34_NW BOM_R50_NE BOM_R50_SE BOM_R50_SW BOM_R50_NW BOM_R64_NE BOM_R64_SE BOM_R64_SW BOM_R64_NW BOM_ROCI BOM_POCI BOM_EYE BOM_POS_METHOD BOM_PRES_METHOD NADI_LAT NADI_LON NADI_CAT NADI_WIND NADI_PRES WELLINGTON_LAT WELLINGTON_LON WELLINGTON_WIND WELLINGTON_PRES DS824_LAT DS824_LON DS824_STAGE DS824_WIND DS824_PRES TD9636_LAT TD9636_LON TD9636_STAGE TD9636_WIND TD9636_PRES TD9635_LAT TD9635_LON TD9635_WIND TD9635_PRES TD9635_ROCI NEUMANN_LAT NEUMANN_LON NEUMANN_CLASS NEUMANN_WIND NEUMANN_PRES MLC_LAT MLC_LON MLC_CLASS MLC_WIND MLC_PRES USA_GUST BOM_GUST BOM_GUST_PER REUNION_GUST REUNION_GUST_PER USA_SEAHGT USA_SEARAD_NE USA_SEARAD_SE USA_SEARAD_SW USA_SEARAD_NW STORM_SPEED STORM_DIR
1924257N24276 1924 33 NA GM NOT_NAMED 1924-09-13 00:00:00 TS 24.0000 -84.5000 35 hurdat_atl main 154 154 O_____________ hurdat_atl AL051924 24.0000 -84.5000 TS 35 0 12 312
1924257N24276 1924 33 NA GM NOT_NAMED 1924-09-13 03:00:00 TS 24.4102 -84.9919 main 215 215 P_____________ AL051924 24.4102 -84.9919 TS 37 0 12 311
1924257N24276 1924 33 NA GM NOT_NAMED 1924-09-13 06:00:00 TS 24.8000 -85.5000 40 hurdat_atl main 279 279 O_____________ hurdat_atl AL051924 24.8000 -85.5000 TS 40 0 12 309
1924257N24276 1924 33 NA GM NOT_NAMED 1924-09-13 09:00:00 TS 25.1575 -86.0227 main 345 345 P_____________ AL051924 25.1575 -86.0227 TS 42 0 11 308
1924257N24276 1924 33 NA GM NOT_NAMED 1924-09-13 12:00:00 TS 25.5000 -86.5000 45 hurdat_atl main 402 402 O_____________ hurdat_atl AL051924 25.5000 -86.5000 TS 45 0 10 312
1924257N24276 1924 33 NA GM NOT_NAMED 1924-09-13 15:00:00 TS 25.8498 -86.8878 main 418 364 P_____________ AL051924 25.8498 -86.8878 TS 45 0 9 318
1924257N24276 1924 33 NA GM NOT_NAMED 1924-09-13 18:00:00 TS 26.2000 -87.2000 45 hurdat_atl main 364 320 O_____________ hurdat_atl AL051924 26.2000 -87.2000 TS 45 0 9 322
1924257N24276 1924 33 NA GM NOT_NAMED 1924-09-13 21:00:00 TS 26.5500 -87.4876 main 320 271 P_____________ AL051924 26.5500 -87.4876 TS 47 0 8 327
1924257N24276 1924 33 NA GM NOT_NAMED 1924-09-14 00:00:00 TS 26.9000 -87.7000 50 hurdat_atl main 271 237 O_____________ hurdat_atl AL051924 26.9000 -87.7000 TS 50 0 8 337
1924257N24276 1924 33 NA GM NOT_NAMED 1924-09-14 03:00:00 TS 27.2574 -87.8302 main 228 195 P_____________ AL051924 27.2574 -87.8302 TS 50 0 7 346
1924257N24276 1924 33 NA GM NOT_NAMED 1924-09-14 06:00:00 TS 27.6000 -87.9000 50 hurdat_atl main 195 163 O_____________ hurdat_atl AL051924 27.6000 -87.9000 TS 50 0 7 347
1924257N24276 1924 33 NA GM NOT_NAMED 1924-09-14 09:00:00 TS 27.9224 -87.9949 main 163 139 P_____________ AL051924 27.9224 -87.9949 TS 52 0 6 352
1924257N24276 1924 33 NA GM NOT_NAMED 1924-09-14 12:00:00 TS 28.2000 -88.0000 55 hurdat_atl main 139 132 O_____________ hurdat_atl AL051924 28.2000 -88.0000 TS 55 0 5 14
1924257N24276 1924 33 NA GM NOT_NAMED 1924-09-14 15:00:00 TS 28.4150 -87.8525 main 132 132 P_____________ AL051924 28.4150 -87.8525 TS 57 0 5 41
1924257N24276 1924 33 NA GM NOT_NAMED 1924-09-14 18:00:00 TS 28.6000 -87.6000 60 hurdat_atl main 147 147 O_____________ hurdat_atl AL051924 28.6000 -87.6000 TS 60 0 6 49
1924257N24276 1924 33 NA GM NOT_NAMED 1924-09-14 21:00:00 TS 28.8074 -87.3300 main 167 145 P_____________ AL051924 28.8074 -87.3300 TS 62 0 7 53
1924257N24276 1924 33 NA GM NOT_NAMED 1924-09-15 00:00:00 TS 29.0000 -87.0000 65 hurdat_atl main 146 134 O_____________ hurdat_atl AL051924 29.0000 -87.0000 HU 65 1 7 61
1924257N24276 1924 33 NA GM NOT_NAMED 1924-09-15 03:00:00 TS 29.1576 -86.6074 main 128 89 P_____________ AL051924 29.1576 -86.6074 HU 67 1 8 67
1924257N24276 1924 33 NA GM NOT_NAMED 1924-09-15 06:00:00 TS 29.3000 -86.2000 70 hurdat_atl main 89 58 O_____________ hurdat_atl AL051924 29.3000 -86.2000 HU 70 1 7 67
1924257N24276 1924 33 NA GM NOT_NAMED 1924-09-15 09:00:00 TS 29.4499 -85.8318 main 51 14 P_____________ AL051924 29.4499 -85.8318 HU 72 1 7 64
1924257N24276 1924 33 NA GM NOT_NAMED 1924-09-15 12:00:00 TS 29.6000 -85.5000 75 980 hurdat_atl main 14 0 O_____________ hurdat_atl AL051924 29.6000 -85.5000 HU 75 980 1 6 62
1924257N24276 1924 33 NA GM NOT_NAMED 1924-09-15 14:00:00 TS 29.7000 -85.3000 75 980 hurdat_atl main 0 0 O_____________ hurdat_atl AL051924 29.7000 -85.3000 L HU 75 980 1 6 60
1924257N24276 1924 33 NA GM NOT_NAMED 1924-09-15 15:00:00 TS 29.7500 -85.2000 main 0 0 P_____________ AL051924 29.7500 -85.2000 HU 70 1 6 60
1924257N24276 1924 33 NA NA NOT_NAMED 1924-09-15 18:00:00 TS 29.9000 -84.9000 55 hurdat_atl main 0 0 O_____________ hurdat_atl AL051924 29.9000 -84.9000 TS 55 0 6 60
1924257N24276 1924 33 NA NA NOT_NAMED 1924-09-15 21:00:00 TS 30.0499 -84.6070 main 0 0 P_____________ AL051924 30.0499 -84.6070 TS 52 0 6 60
1924257N24276 1924 33 NA NA NOT_NAMED 1924-09-16 00:00:00 TS 30.2000 -84.3000 50 hurdat_atl main 0 0 O_____________ hurdat_atl AL051924 30.2000 -84.3000 TS 50 0 6 63
1924257N24276 1924 33 NA NA NOT_NAMED 1924-09-16 03:00:00 TS 30.3349 -83.9647 main 0 0 P_____________ AL051924 30.3349 -83.9647 TS 47 0 7 64
1924257N24276 1924 33 NA NA NOT_NAMED 1924-09-16 06:00:00 TS 30.5000 -83.6000 45 hurdat_atl main 0 0 O_____________ hurdat_atl AL051924 30.5000 -83.6000 TS 45 0 7 59
1924257N24276 1924 33 NA NA NOT_NAMED 1924-09-16 09:00:00 TS 30.7122 -83.2295 main 0 0 P_____________ AL051924 30.7122 -83.2295 TS 42 0 9 54
1924257N24276 1924 33 NA NA NOT_NAMED 1924-09-16 12:00:00 TS 31.0000 -82.8000 40 hurdat_atl main 0 0 O_____________ hurdat_atl AL051924 31.0000 -82.8000 TS 40 0 10 51
1924257N24276 1924 33 NA NA NOT_NAMED 1924-09-16 15:00:00 TS 31.3546 -82.3017 main 0 0 P_____________ AL051924 31.3546 -82.3017 TS 37 0 12 50
1924257N24276 1924 33 NA NA NOT_NAMED 1924-09-16 18:00:00 TS 31.8000 -81.7000 35 hurdat_atl main 0 0 O_____________ hurdat_atl AL051924 31.8000 -81.7000 TS 35 0 15 49
1924257N24276 1924 33 NA NA NOT_NAMED 1924-09-16 21:00:00 TS 32.3193 -81.0165 main 0 0 P_____________ AL051924 32.3193 -81.0165 TS 35 0 17 49
1924257N24276 1924 33 NA NA NOT_NAMED 1924-09-17 00:00:00 TS 32.9000 -80.2000 35 hurdat_atl main 0 0 O_____________ hurdat_atl AL051924 32.9000 -80.2000 TS 35 0 19 51
1924257N24276 1924 33 NA NA NOT_NAMED 1924-09-17 03:00:00 TS 33.4918 -79.2663 main 0 0 P_____________ AL051924 33.4918 -79.2663 TS 37 0 21 54
1924257N24276 1924 33 NA NA NOT_NAMED 1924-09-17 06:00:00 ET 34.1000 -78.2000 40 hurdat_atl main 0 0 O_____________ hurdat_atl AL051924 34.1000 -78.2000 EX 40 -4 21 56
1924257N24276 1924 33 NA NA NOT_NAMED 1924-09-17 09:00:00 ET 34.6819 -77.1084 main 0 0 P_____________ AL051924 34.6819 -77.1084 EX 42 -4 23 59
1924257N24276 1924 33 NA NA NOT_NAMED 1924-09-17 12:00:00 ET 35.3000 -75.8000 45 hurdat_atl main 28 24 O_____________ hurdat_atl AL051924 35.3000 -75.8000 EX 45 -4 28 63
1924257N24276 1924 33 NA NA NOT_NAMED 1924-09-17 15:00:00 ET 35.9734 -74.0657 main 127 127 P_____________ AL051924 35.9734 -74.0657 EX 45 -4 32 64
1924257N24276 1924 33 NA NA NOT_NAMED 1924-09-17 18:00:00 ET 36.7000 -72.3000 45 hurdat_atl main 303 303 O_____________ hurdat_atl AL051924 36.7000 -72.3000 EX 45 -4 29 59
1924257N24276 1924 33 NA NA NOT_NAMED 1924-09-17 21:00:00 ET 37.4733 -70.9356 main 369 364 P_____________ AL051924 37.4733 -70.9356 EX 45 -4 26 52
1924257N24276 1924 33 NA NA NOT_NAMED 1924-09-18 00:00:00 ET 38.3000 -69.7000 45 hurdat_atl main 366 315 O_____________ hurdat_atl AL051924 38.3000 -69.7000 EX 45 -4 26 50
1924257N24276 1924 33 NA NA NOT_NAMED 1924-09-18 03:00:00 ET 39.1567 -68.3414 main 312 303 P_____________ AL051924 39.1567 -68.3414 EX 45 -4 27 51
1924257N24276 1924 33 NA NA NOT_NAMED 1924-09-18 06:00:00 ET 40.0000 -67.0000 45 hurdat_atl main 314 311 O_____________ hurdat_atl AL051924 40.0000 -67.0000 EX 45 -4 26 51
1924257N24276 1924 33 NA NA NOT_NAMED 1924-09-18 09:00:00 ET 40.7781 -65.7318 main 300 229 P_____________ AL051924 40.7781 -65.7318 EX 47 -4 24 52
1924257N24276 1924 33 NA NA NOT_NAMED 1924-09-18 12:00:00 ET 41.5000 -64.5000 50 hurdat_atl main 231 211 O_____________ hurdat_atl AL051924 41.5000 -64.5000 EX 50 -4 23 53
1924257N24276 1924 33 NA NA NOT_NAMED 1924-09-18 15:00:00 ET 42.1786 -63.2475 main 220 214 P_____________ AL051924 42.1786 -63.2475 EX 50 -4 23 55
1924257N24276 1924 33 NA NA NOT_NAMED 1924-09-18 18:00:00 ET 42.8000 -62.0000 50 hurdat_atl main 219 202 O_____________ hurdat_atl AL051924 42.8000 -62.0000 EX 50 -4 22 57
1924257N24276 1924 33 NA NA NOT_NAMED 1924-09-18 21:00:00 ET 43.3786 -60.7478 main 201 184 P_____________ AL051924 43.3786 -60.7478 EX 50 -4 21 59
1924257N24276 1924 33 NA NA NOT_NAMED 1924-09-19 00:00:00 ET 43.9000 -59.5000 50 hurdat_atl main 191 189 O_____________ hurdat_atl AL051924 43.9000 -59.5000 EX 50 -4 21 61
1924257N24276 1924 33 NA NA NOT_NAMED 1924-09-19 03:00:00 ET 44.3786 -58.2481 main 215 215 P_____________ AL051924 44.3786 -58.2481 EX 50 -4 20 63
1924257N24276 1924 33 NA NA NOT_NAMED 1924-09-19 06:00:00 ET 44.8000 -57.0000 50 hurdat_atl main 243 177 O_____________ hurdat_atl AL051924 44.8000 -57.0000 EX 50 -4 19 66
1924257N24276 1924 33 NA NA NOT_NAMED 1924-09-19 09:00:00 ET 45.1786 -55.7485 main 177 144 P_____________ AL051924 45.1786 -55.7485 EX 50 -4 19 68
1924257N24276 1924 33 NA NA NOT_NAMED 1924-09-19 12:00:00 ET 45.5000 -54.5000 50 hurdat_atl main 140 89 O_____________ hurdat_atl AL051924 45.5000 -54.5000 EX 50 -4 18 71
1924257N24276 1924 33 NA NA NOT_NAMED 1924-09-19 15:00:00 ET 45.7677 -53.2519 main 89 83 P_____________ AL051924 45.7677 -53.2519 EX 50 -4 18 74
1924257N24276 1924 33 NA NA NOT_NAMED 1924-09-19 18:00:00 ET 46.0000 -52.0000 50 hurdat_atl main 113 O_____________ hurdat_atl AL051924 46.0000 -52.0000 EX 50 -4 18 75

IBTrACS Databaseについて

本データベースは、米国NOAAが公開する1842年以降の世界の熱帯低気圧のベストトラックデータアーカイブInternational Best Track Archive for Climate Stewardship (IBTrACS)を、ウェブで閲覧しやすい形式に変換したものです。

最終更新日:2021-10-21